createdAt,value
2018-05-26T00:00:22.648Z,76.10
2018-05-26T00:02:48.656Z,76.10
2018-05-26T00:05:15.413Z,75.80
2018-05-26T00:07:42.136Z,74.50
2018-05-26T00:10:08.865Z,77.10
2018-05-26T00:12:34.865Z,76.70
2018-05-26T00:15:00.853Z,75.20
2018-05-26T00:17:26.889Z,75.30
2018-05-26T00:19:52.885Z,76.10
2018-05-26T00:22:19.624Z,74.70
2018-05-26T00:24:46.354Z,76.30
2018-05-26T00:27:13.093Z,77.30
2018-05-26T00:29:39.854Z,78.30
2018-05-26T00:32:05.857Z,78.20
2018-05-26T00:34:32.597Z,79.10
2018-05-26T00:36:59.352Z,79.80
2018-05-26T00:39:26.077Z,80.90
2018-05-26T00:41:52.831Z,82.70
2018-05-26T00:44:19.601Z,82.60
2018-05-26T00:46:45.622Z,82.50
2018-05-26T00:49:11.625Z,82.70
2018-05-26T00:51:38.369Z,84.30
2018-05-26T00:54:05.098Z,82.50
2018-05-26T00:56:31.842Z,84.90
2018-05-26T00:58:58.596Z,84.90
2018-05-26T01:01:24.607Z,84.30
2018-05-26T01:03:51.337Z,86.10
2018-05-26T01:06:18.090Z,88.90
2018-05-26T01:08:44.873Z,85.90
2018-05-26T01:11:10.889Z,86.50
2018-05-26T01:13:36.864Z,84.40
2018-05-26T01:16:03.602Z,85.60
2018-05-26T01:18:30.361Z,85.30
2018-05-26T01:20:57.084Z,84.60
2018-05-26T01:23:23.092Z,84.70
2018-05-26T01:25:49.081Z,83.90
2018-05-26T01:28:15.072Z,84.10
2018-05-26T01:30:41.797Z,82.70
2018-05-26T01:33:08.545Z,83.90
2018-05-26T01:35:35.273Z,83.50
2018-05-26T01:38:01.415Z,83.50
2018-05-26T01:40:28.146Z,85.10
2018-05-26T01:42:54.893Z,86.40
2018-05-26T01:45:21.643Z,86.40
2018-05-26T01:47:47.681Z,86.40
2018-05-26T01:50:13.691Z,85.50
2018-05-26T01:52:40.466Z,84.40
2018-05-26T01:55:06.452Z,84.30
2018-05-26T01:57:33.194Z,86.70
2018-05-26T02:00:00.030Z,86.30
2018-05-26T02:02:26.787Z,86.10
2018-05-26T02:04:52.772Z,86.10
2018-05-26T02:07:18.793Z,87.40
2018-05-26T02:09:44.805Z,87.90
2018-05-26T02:12:10.829Z,89.00
2018-05-26T02:14:36.844Z,87.30
2018-05-26T02:17:02.861Z,86.90
2018-05-26T02:19:28.869Z,87.30
2018-05-26T02:21:54.917Z,87.00
2018-05-26T02:24:20.949Z,87.40
2018-05-26T02:26:46.971Z,86.30
2018-05-26T02:29:12.961Z,85.20
2018-05-26T02:31:38.954Z,85.00
2018-05-26T02:34:05.681Z,84.70
2018-05-26T02:36:31.662Z,84.70
2018-05-26T02:38:57.657Z,85.80
2018-05-26T02:41:23.640Z,85.20
2018-05-26T02:43:49.677Z,84.70
2018-05-26T02:46:16.440Z,87.60
2018-05-26T02:48:42.441Z,87.60
2018-05-26T02:51:09.164Z,85.90
2018-05-26T02:53:35.206Z,85.70
2018-05-26T02:56:01.991Z,89.00
2018-05-26T02:58:28.011Z,89.00
2018-05-26T03:00:53.993Z,89.50
2018-05-26T03:03:20.749Z,88.20
2018-05-26T03:05:52.811Z,88.20
2018-05-26T03:08:25.785Z,88.50
2018-05-26T03:10:58.620Z,88.80
2018-05-26T03:13:30.875Z,88.80
2018-05-26T03:16:00.754Z,88.20
2018-05-26T03:18:27.517Z,90.20
2018-05-26T03:20:53.513Z,90.20
2018-05-26T03:23:21.017Z,90.70
2018-05-26T03:25:47.765Z,90.20
2018-05-26T03:28:13.769Z,90.20
2018-05-26T03:30:39.754Z,90.10
2018-05-26T03:33:05.769Z,90.20
2018-05-26T03:35:31.773Z,89.40
2018-05-26T03:37:57.857Z,89.30
2018-05-26T03:40:24.588Z,90.00
2018-05-26T03:42:51.332Z,89.00
2018-05-26T03:45:18.057Z,88.50
2018-05-26T03:47:44.808Z,88.40
2018-05-26T03:50:11.536Z,88.70
2018-05-26T03:52:37.541Z,88.50
2018-05-26T03:55:18.497Z,88.80
2018-05-26T03:57:50.613Z,89.70
2018-05-26T04:00:17.388Z,89.80
2018-05-26T04:02:43.382Z,89.90
2018-05-26T04:05:10.133Z,91.40
2018-05-26T04:07:36.251Z,91.40
2018-05-26T04:10:02.266Z,90.20
2018-05-26T04:12:28.996Z,90.20
2018-05-26T04:14:55.009Z,90.20
2018-05-26T04:17:21.014Z,90.10
2018-05-26T04:19:47.085Z,88.80
2018-05-26T04:22:13.105Z,89.50
2018-05-26T04:24:39.141Z,89.80
2018-05-26T04:27:05.156Z,89.80
2018-05-26T04:29:31.168Z,88.00
2018-05-26T04:31:57.921Z,88.90
2018-05-26T04:34:24.682Z,90.00
2018-05-26T04:36:50.687Z,90.00
2018-05-26T04:39:17.433Z,89.60
2018-05-26T04:41:43.425Z,89.60
2018-05-26T04:44:10.194Z,90.20
2018-05-26T04:46:37.002Z,88.60
2018-05-26T04:49:03.777Z,89.50
2018-05-26T04:51:30.517Z,90.90
2018-05-26T04:53:57.346Z,91.10
2018-05-26T04:56:24.102Z,90.80
2018-05-26T04:58:50.157Z,90.80
2018-05-26T05:01:16.154Z,91.40
2018-05-26T05:03:42.157Z,91.10
2018-05-26T05:06:08.894Z,91.40
2018-05-26T05:08:35.036Z,91.40
2018-05-26T05:11:01.098Z,91.20
2018-05-26T05:13:27.105Z,91.60
2018-05-26T05:15:53.109Z,92.20
2018-05-26T05:18:19.873Z,92.70
2018-05-26T05:20:45.885Z,92.80
2018-05-26T05:23:11.869Z,93.30
2018-05-26T05:25:37.880Z,93.20
2018-05-26T05:28:03.870Z,93.20
2018-05-26T05:30:29.865Z,94.50
2018-05-26T05:32:56.590Z,93.10
2018-05-26T05:35:22.637Z,93.10
2018-05-26T05:37:49.374Z,93.40
2018-05-26T05:40:15.381Z,93.30
2018-05-26T05:42:42.123Z,92.90
2018-05-26T05:45:08.862Z,93.30
2018-05-26T05:47:35.617Z,94.50
2018-05-26T05:50:02.371Z,92.90
2018-05-26T05:52:28.382Z,92.90
2018-05-26T05:54:55.124Z,94.30
2018-05-26T05:57:21.856Z,94.10
2018-05-26T05:59:48.589Z,93.60
2018-05-26T06:02:15.327Z,93.40
2018-05-26T06:04:42.068Z,93.90
2018-05-26T06:07:08.050Z,93.60
2018-05-26T06:09:34.061Z,93.80
2018-05-26T06:12:00.067Z,94.20
2018-05-26T06:14:26.060Z,94.00
2018-05-26T06:16:52.817Z,92.80
2018-05-26T06:19:19.554Z,93.70
2018-05-26T06:21:46.264Z,92.80
2018-05-26T06:24:12.254Z,92.80
2018-05-26T06:26:38.268Z,94.20
2018-05-26T06:29:04.266Z,93.30
2018-05-26T06:31:31.002Z,93.40
2018-05-26T06:33:57.735Z,93.70
2018-05-26T06:36:24.485Z,94.30
2018-05-26T06:38:51.214Z,93.50
2018-05-26T06:41:17.962Z,93.30
2018-05-26T06:43:44.693Z,93.20
2018-05-26T06:46:11.439Z,92.80
2018-05-26T06:48:38.508Z,93.20
2018-05-26T06:51:04.607Z,93.20
2018-05-26T06:53:30.556Z,93.00
2018-05-26T06:55:57.315Z,92.60
2018-05-26T06:58:23.296Z,92.60
2018-05-26T07:00:49.310Z,93.00
2018-05-26T07:03:15.287Z,92.10
2018-05-26T07:05:41.293Z,92.10
2018-05-26T07:08:07.317Z,92.10
2018-05-26T07:10:33.373Z,92.30
2018-05-26T07:12:59.390Z,92.10
2018-05-26T07:15:25.405Z,92.00
2018-05-26T07:17:51.401Z,91.80
2018-05-26T07:20:17.413Z,91.60
2018-05-26T07:22:44.141Z,91.50
2018-05-26T07:25:10.145Z,91.50
2018-05-26T07:27:36.148Z,91.10
2018-05-26T07:30:02.142Z,91.10
2018-05-26T07:32:28.126Z,90.30
2018-05-26T07:34:54.142Z,90.10
2018-05-26T07:37:20.131Z,90.10
2018-05-26T07:39:46.396Z,89.80
2018-05-26T07:42:12.397Z,90.20
2018-05-26T07:44:38.380Z,90.00
2018-05-26T07:47:05.139Z,89.70
2018-05-26T07:49:31.109Z,90.20
2018-05-26T07:51:57.278Z,88.40
2018-05-26T07:54:23.301Z,89.20
2018-05-26T07:56:50.033Z,87.50
2018-05-26T07:59:16.766Z,87.30
2018-05-26T08:01:43.535Z,87.10
2018-05-26T08:04:09.537Z,87.20
2018-05-26T08:06:36.450Z,86.00
2018-05-26T08:09:02.457Z,86.00
2018-05-26T08:11:28.448Z,86.00
2018-05-26T08:13:54.445Z,84.70
2018-05-26T08:16:21.186Z,83.60
2018-05-26T08:18:47.971Z,82.90
2018-05-26T08:21:13.949Z,82.80
2018-05-26T08:23:39.985Z,85.40
2018-05-26T08:26:06.741Z,85.70
2018-05-26T08:28:32.747Z,85.50
2018-05-26T08:30:59.597Z,85.60
2018-05-26T08:33:26.330Z,84.30
2018-05-26T08:35:53.075Z,84.30
2018-05-26T08:38:19.817Z,83.90
2018-05-26T08:40:45.825Z,83.80
2018-05-26T08:43:12.585Z,83.80
2018-05-26T08:45:39.370Z,82.70
2018-05-26T08:48:05.365Z,82.60
2018-05-26T08:50:31.365Z,81.80
2018-05-26T08:52:58.121Z,82.20
2018-05-26T08:55:24.133Z,82.20
2018-05-26T08:57:50.871Z,81.20
2018-05-26T09:00:17.602Z,81.70
2018-05-26T09:02:44.479Z,80.90
2018-05-26T09:05:10.523Z,80.90
2018-05-26T09:07:36.534Z,79.80
2018-05-26T09:10:02.529Z,78.50
2018-05-26T09:12:28.586Z,79.80
2018-05-26T09:14:54.594Z,77.70
2018-05-26T09:17:20.607Z,77.30
2018-05-26T09:19:47.337Z,75.20
2018-05-26T09:22:14.079Z,77.50
2018-05-26T09:24:40.804Z,75.80
2018-05-26T09:27:06.850Z,75.80
2018-05-26T09:29:33.577Z,73.80
2018-05-26T09:32:00.537Z,74.80
2018-05-26T09:34:27.281Z,72.40
2018-05-26T09:36:54.044Z,70.90
2018-05-26T09:39:20.060Z,70.90
2018-05-26T09:41:46.073Z,70.40
2018-05-26T09:44:12.052Z,69.80
2018-05-26T09:46:38.054Z,69.30
2018-05-26T09:49:04.120Z,69.90
2018-05-26T09:51:30.949Z,67.20
2018-05-26T09:53:56.932Z,67.10
2018-05-26T09:56:22.940Z,68.10
2018-05-26T09:58:49.055Z,66.30
2018-05-26T10:01:15.801Z,65.80
2018-05-26T10:03:41.801Z,65.80
2018-05-26T10:06:08.577Z,61.60
2018-05-26T10:08:34.653Z,61.70
2018-05-26T10:11:00.690Z,62.30
2018-05-26T10:13:27.502Z,59.60
2018-05-26T10:15:53.454Z,59.70
2018-05-26T10:18:21.535Z,60.20
2018-05-26T10:20:47.583Z,60.20
2018-05-26T10:23:13.657Z,59.00
2018-05-26T10:25:39.715Z,59.40
2018-05-26T10:28:06.457Z,62.00
2018-05-26T10:30:32.494Z,62.00
2018-05-26T10:32:59.220Z,63.20
2018-05-26T10:35:25.963Z,61.40
2018-05-26T10:37:52.713Z,61.10
2018-05-26T10:40:18.715Z,61.20
2018-05-26T10:42:45.452Z,58.10
2018-05-26T10:45:12.201Z,59.60
2018-05-26T10:47:38.297Z,59.60
2018-05-26T10:50:04.289Z,58.90
2018-05-26T10:52:30.302Z,58.80
2018-05-26T10:54:56.309Z,58.30
2018-05-26T10:57:22.326Z,59.20
2018-05-26T10:59:49.062Z,57.10
2018-05-26T11:02:15.803Z,57.50
2018-05-26T11:04:42.528Z,57.40
2018-05-26T11:07:08.528Z,57.30
2018-05-26T11:09:34.518Z,57.50
2018-05-26T11:12:00.541Z,55.80
2018-05-26T11:14:26.585Z,55.70
2018-05-26T11:16:52.605Z,54.40
2018-05-26T11:19:18.598Z,55.10
2018-05-26T11:21:44.607Z,54.80
2018-05-26T11:24:10.647Z,56.50
2018-05-26T11:26:37.375Z,55.80
2018-05-26T11:29:04.116Z,56.60
2018-05-26T11:31:30.845Z,57.00
2018-05-26T11:33:57.589Z,56.30
2018-05-26T11:36:24.326Z,56.20
2018-05-26T11:38:51.180Z,54.60
2018-05-26T11:41:17.189Z,54.60
2018-05-26T11:43:43.941Z,53.10
2018-05-26T11:46:10.672Z,54.70
2018-05-26T11:48:37.426Z,53.60
2018-05-26T11:51:04.155Z,53.50
2018-05-26T11:53:30.913Z,52.90
2018-05-26T11:55:57.648Z,50.50
2018-05-26T11:58:24.388Z,51.20
2018-05-26T12:00:51.119Z,49.60
2018-05-26T12:03:17.136Z,49.60
2018-05-26T12:05:43.140Z,49.60
2018-05-26T12:08:09.139Z,48.30
2018-05-26T12:10:35.158Z,48.20
2018-05-26T12:13:01.149Z,48.70
2018-05-26T12:15:27.882Z,47.80
2018-05-26T12:17:54.709Z,45.90
2018-05-26T12:20:20.696Z,45.80
2018-05-26T12:22:46.689Z,48.30
2018-05-26T12:25:12.686Z,49.40
2018-05-26T12:27:39.517Z,48.50
2018-05-26T12:30:05.526Z,48.50
2018-05-26T12:32:31.552Z,48.50
2018-05-26T12:34:57.533Z,48.40
2018-05-26T12:37:23.521Z,50.10
2018-05-26T12:39:50.262Z,50.40
2018-05-26T12:42:17.028Z,48.20
2018-05-26T12:44:43.025Z,48.20
2018-05-26T12:47:09.765Z,47.50
2018-05-26T12:49:35.761Z,47.60
2018-05-26T12:52:01.745Z,47.30
2018-05-26T12:54:27.751Z,46.20
2018-05-26T12:56:54.489Z,48.10
2018-05-26T12:59:20.502Z,48.20
2018-05-26T13:01:47.238Z,48.10
2018-05-26T13:04:13.239Z,48.10
2018-05-26T13:06:39.233Z,48.90
2018-05-26T13:09:05.246Z,48.80
2018-05-26T13:11:31.233Z,47.60
2018-05-26T13:13:57.993Z,45.80
2018-05-26T13:16:24.717Z,45.50
2018-05-26T13:18:50.911Z,45.50
2018-05-26T13:21:16.900Z,47.30
2018-05-26T13:23:42.931Z,46.50
2018-05-26T13:26:08.926Z,45.10
2018-05-26T13:28:35.682Z,43.50
2018-05-26T13:31:01.672Z,43.50
2018-05-26T13:33:27.677Z,43.90
2018-05-26T13:35:53.685Z,44.40
2018-05-26T13:38:19.682Z,45.20
2018-05-26T13:40:45.669Z,42.70
2018-05-26T13:43:11.680Z,44.70
2018-05-26T13:45:37.717Z,44.70
2018-05-26T13:48:04.496Z,44.50
2018-05-26T13:50:30.580Z,44.50
2018-05-26T13:52:56.578Z,44.60
2018-05-26T13:55:22.549Z,44.90
2018-05-26T13:57:49.273Z,45.10
2018-05-26T14:00:16.013Z,43.70
2018-05-26T14:02:42.754Z,43.40
2018-05-26T14:05:09.493Z,43.80
2018-05-26T14:07:36.233Z,46.40
2018-05-26T14:10:02.987Z,47.80
2018-05-26T14:12:29.718Z,46.60
2018-05-26T14:14:56.457Z,44.70
2018-05-26T14:17:23.210Z,42.90
2018-05-26T14:19:49.953Z,43.40
2018-05-26T14:22:16.689Z,44.20
2018-05-26T14:24:43.445Z,42.60
2018-05-26T14:27:09.455Z,42.60
2018-05-26T14:29:36.212Z,40.10
2018-05-26T14:32:02.199Z,40.10
2018-05-26T14:34:28.205Z,40.70
2018-05-26T14:36:54.194Z,41.80
2018-05-26T14:39:20.200Z,42.60
2018-05-26T14:41:46.190Z,42.10
2018-05-26T14:44:12.197Z,43.00
2018-05-26T14:46:38.202Z,41.20
2018-05-26T14:49:04.202Z,41.50
2018-05-26T14:51:30.189Z,42.30
2018-05-26T14:53:56.961Z,40.00
2018-05-26T14:56:22.945Z,39.80
2018-05-26T14:58:48.975Z,40.50
2018-05-26T15:01:15.022Z,42.10
2018-05-26T15:03:41.130Z,42.30
2018-05-26T15:06:07.885Z,40.80
2018-05-26T15:08:34.621Z,41.30
2018-05-26T15:11:01.364Z,39.90
2018-05-26T15:13:28.190Z,39.40
2018-05-26T15:15:54.196Z,39.40
2018-05-26T15:18:20.193Z,37.80
2018-05-26T15:20:46.198Z,39.80
2018-05-26T15:23:12.189Z,40.30
2018-05-26T15:25:38.944Z,39.10
2018-05-26T15:28:05.678Z,39.90
2018-05-26T15:30:32.429Z,38.90
2018-05-26T15:32:59.153Z,38.40
2018-05-26T15:35:25.905Z,38.10
2018-05-26T15:37:52.658Z,36.70
2018-05-26T15:40:18.667Z,36.70
2018-05-26T15:42:45.438Z,39.10
2018-05-26T15:45:11.449Z,39.20
2018-05-26T15:47:37.433Z,38.10
2018-05-26T15:50:03.441Z,38.40
2018-05-26T15:52:29.424Z,38.90
2018-05-26T15:54:55.433Z,39.40
2018-05-26T15:57:22.158Z,39.10
2018-05-26T15:59:48.926Z,37.90
2018-05-26T16:02:14.933Z,38.00
2018-05-26T16:04:41.091Z,36.40
2018-05-26T16:07:07.087Z,37.80
2018-05-26T16:09:33.825Z,38.60
2018-05-26T16:12:00.578Z,37.90
2018-05-26T16:14:26.594Z,37.90
2018-05-26T16:16:53.344Z,41.40
2018-05-26T16:19:19.341Z,41.40
2018-05-26T16:21:46.108Z,43.40
2018-05-26T16:24:12.101Z,43.40
2018-05-26T16:26:38.118Z,45.30
2018-05-26T16:29:04.105Z,43.10
2018-05-26T16:31:30.346Z,41.40
2018-05-26T16:33:56.341Z,40.60
2018-05-26T16:36:22.342Z,40.20
2018-05-26T16:38:49.069Z,41.20
2018-05-26T16:41:15.817Z,39.60
2018-05-26T16:43:42.557Z,41.10
2018-05-26T16:46:09.315Z,43.60
2018-05-26T16:48:35.295Z,43.50
2018-05-26T16:51:01.301Z,42.20
2018-05-26T16:53:27.297Z,40.20
2018-05-26T16:55:53.321Z,39.30
2018-05-26T16:58:19.328Z,39.30
2018-05-26T17:00:45.329Z,40.20
2018-05-26T17:03:12.069Z,41.10
2018-05-26T17:05:38.820Z,39.70
2018-05-26T17:08:05.569Z,42.00
2018-05-26T17:10:32.318Z,42.20
2018-05-26T17:12:58.329Z,42.10
2018-05-26T17:15:25.066Z,41.60
2018-05-26T17:17:51.823Z,41.70
2018-05-26T17:20:17.876Z,41.60
2018-05-26T17:22:43.861Z,41.10
2018-05-26T17:25:10.607Z,43.50
2018-05-26T17:27:36.600Z,43.40
2018-05-26T17:30:02.594Z,43.80
2018-05-26T17:32:28.585Z,44.70
2018-05-26T17:34:54.702Z,46.40
2018-05-26T17:37:21.437Z,42.50
2018-05-26T17:39:48.279Z,43.30
2018-05-26T17:42:15.025Z,41.30
2018-05-26T17:44:41.764Z,39.70
2018-05-26T17:47:08.505Z,40.50
2018-05-26T17:49:35.245Z,42.20
2018-05-26T17:52:02.000Z,44.30
2018-05-26T17:54:28.016Z,44.20
2018-05-26T17:56:54.018Z,43.70
2018-05-26T17:59:20.779Z,43.20
2018-05-26T18:01:46.803Z,43.10
2018-05-26T18:04:12.797Z,42.30
2018-05-26T18:06:38.802Z,41.40
2018-05-26T18:09:04.793Z,42.20
2018-05-26T18:11:30.799Z,42.90
2018-05-26T18:13:56.798Z,43.90
2018-05-26T18:16:23.558Z,43.80
2018-05-26T18:18:50.296Z,45.20
2018-05-26T18:21:17.037Z,44.90
2018-05-26T18:23:43.062Z,44.90
2018-05-26T18:26:09.804Z,44.60
2018-05-26T18:28:36.529Z,44.90
2018-05-26T18:31:03.280Z,45.20
2018-05-26T18:33:30.010Z,45.80
2018-05-26T18:35:56.763Z,46.20
2018-05-26T18:38:23.614Z,47.00
2018-05-26T18:40:49.613Z,47.00
2018-05-26T18:43:15.603Z,48.10
2018-05-26T18:45:41.593Z,48.20
2018-05-26T18:48:07.597Z,48.50
2018-05-26T18:50:34.326Z,49.80
2018-05-26T18:53:01.085Z,50.50
2018-05-26T18:55:27.085Z,50.50
2018-05-26T18:57:53.104Z,51.00
2018-05-26T19:00:19.084Z,52.00
2018-05-26T19:02:51.968Z,52.00
2018-05-26T19:05:17.958Z,52.20
2018-05-26T19:07:44.801Z,52.70
2018-05-26T19:10:11.528Z,50.90
2018-05-26T19:12:38.281Z,50.10
2018-05-26T19:15:05.005Z,49.80
2018-05-26T19:17:31.769Z,50.20
2018-05-26T19:19:58.506Z,49.80
2018-05-26T19:22:25.245Z,50.30
2018-05-26T19:24:51.977Z,50.30
2018-05-26T19:27:18.708Z,50.60
2018-05-26T19:29:44.689Z,50.50
2018-05-26T19:32:10.701Z,50.90
2018-05-26T19:34:36.703Z,51.50
2018-05-26T19:37:02.757Z,51.70
2018-05-26T19:39:29.445Z,52.10
2018-05-26T19:41:56.224Z,53.00
2018-05-26T19:44:22.241Z,53.00
2018-05-26T19:46:48.265Z,53.60
2018-05-26T19:49:14.989Z,54.40
2018-05-26T19:51:41.732Z,54.90
2018-05-26T19:54:08.452Z,55.20
2018-05-26T19:56:34.459Z,55.10
2018-05-26T19:59:00.449Z,55.50
2018-05-26T20:01:26.445Z,56.20
2018-05-26T20:03:52.437Z,57.10
2018-05-26T20:06:18.430Z,57.30
2018-05-26T20:08:44.431Z,57.20
2018-05-26T20:11:10.431Z,57.30
2018-05-26T20:13:37.184Z,58.30
2018-05-26T20:16:03.169Z,58.30
2018-05-26T20:18:29.937Z,60.30
2018-05-26T20:20:56.672Z,60.70
2018-05-26T20:23:23.425Z,61.00
2018-05-26T20:25:50.155Z,61.50
2018-05-26T20:28:16.905Z,62.20
2018-05-26T20:30:43.640Z,61.80
2018-05-26T20:33:10.390Z,61.00
2018-05-26T20:35:36.389Z,61.00
2018-05-26T20:38:02.393Z,61.10
2018-05-26T20:40:28.389Z,61.80
2018-05-26T20:42:54.377Z,62.60
2018-05-26T20:45:21.117Z,62.30
2018-05-26T20:47:47.857Z,62.40
2018-05-26T20:50:14.595Z,62.50
2018-05-26T20:52:41.473Z,63.00
2018-05-26T20:55:07.463Z,63.00
2018-05-26T20:57:33.487Z,64.00
2018-05-26T21:00:00.276Z,63.30
2018-05-26T21:02:26.250Z,63.20
2018-05-26T21:04:52.991Z,64.10
2018-05-26T21:07:19.738Z,64.40
2018-05-26T21:09:46.476Z,64.90
2018-05-26T21:12:12.501Z,64.80
2018-05-26T21:14:38.505Z,65.20
2018-05-26T21:17:05.265Z,65.40
2018-05-26T21:19:31.329Z,65.40
2018-05-26T21:21:57.345Z,65.10
2018-05-26T21:24:23.546Z,66.00
2018-05-26T21:26:49.560Z,65.80
2018-05-26T21:29:16.340Z,65.90
2018-05-26T21:31:42.337Z,65.90
2018-05-26T21:34:08.370Z,65.80
2018-05-26T21:36:34.361Z,65.90
2018-05-26T21:39:01.111Z,66.70
2018-05-26T21:41:27.841Z,68.30
2018-05-26T21:43:53.841Z,68.30
2018-05-26T21:46:19.846Z,68.50
2018-05-26T21:48:45.861Z,68.10
2018-05-26T21:51:11.877Z,68.70
2018-05-26T21:53:37.889Z,68.80
2018-05-26T21:56:03.876Z,69.80
2018-05-26T21:58:29.887Z,69.70
2018-05-26T22:00:55.865Z,69.00
2018-05-26T22:03:21.870Z,69.10
2018-05-26T22:05:48.652Z,68.90
2018-05-26T22:08:14.693Z,68.90
2018-05-26T22:10:41.589Z,69.00
2018-05-26T22:13:07.844Z,69.40
2018-05-26T22:15:34.320Z,69.70
2018-05-26T22:18:00.377Z,70.20
2018-05-26T22:20:26.361Z,70.90
2018-05-26T22:22:54.370Z,70.70
2018-05-26T22:25:20.349Z,71.20
2018-05-26T22:27:46.341Z,70.70
2018-05-26T22:30:12.324Z,71.50
2018-05-26T22:32:38.325Z,71.50
2018-05-26T22:35:04.324Z,72.00
2018-05-26T22:37:30.317Z,71.70
2018-05-26T22:39:56.323Z,72.10
2018-05-26T22:42:23.046Z,73.10
2018-05-26T22:44:49.046Z,72.90
2018-05-26T22:47:15.030Z,73.60
2018-05-26T22:49:41.034Z,73.90
2018-05-26T22:52:07.753Z,74.40
2018-05-26T22:54:33.759Z,74.50
2018-05-26T22:56:59.741Z,74.40
2018-05-26T22:59:25.729Z,74.70
2018-05-26T23:01:52.469Z,74.80
2018-05-26T23:04:19.213Z,74.10
2018-05-26T23:06:45.949Z,75.10
2018-05-26T23:09:12.772Z,75.20
2018-05-26T23:11:38.765Z,75.20
2018-05-26T23:14:04.773Z,75.20
2018-05-26T23:16:30.765Z,75.20
2018-05-26T23:18:57.517Z,76.10
2018-05-26T23:21:24.240Z,76.40
2018-05-26T23:23:51.019Z,76.60
2018-05-26T23:26:17.008Z,76.60
2018-05-26T23:28:43.758Z,77.10
2018-05-26T23:31:10.488Z,76.20
2018-05-26T23:33:37.237Z,77.20
2018-05-26T23:36:03.962Z,77.10
2018-05-26T23:38:29.969Z,77.00
2018-05-26T23:40:55.953Z,77.70
2018-05-26T23:43:21.962Z,77.60
2018-05-26T23:45:47.955Z,77.50
2018-05-26T23:48:13.949Z,77.80
2018-05-26T23:50:39.998Z,79.30
2018-05-26T23:53:05.980Z,79.60
2018-05-26T23:55:31.980Z,79.70
2018-05-26T23:57:57.972Z,79.50
